Time;durP1;ratioP1;P1;durP2;ratioP2;P2;SDS_P1;SDS_P2;PMS_P1;PMS_P2;Temp;Humidity;BMP_temperature;BMP_pressure;BME280_temperature;BME280_humidity;BME280_pressure;Samples;Min_cycle;Max_cycle;Signal;HPM_P1;HPM_P2
2021/09/07 00:02:26;;;;;;;2.70;0.73;;;;;;;;;;5046808;28;20025;-69
2021/09/07 00:04:54;;;;;;;2.65;0.80;;;;;;;;;;5047161;28;20029;-69
2021/09/07 00:07:22;;;;;;;3.70;0.68;;;;;;;;;;5042662;28;20532;-69
2021/09/07 00:09:50;;;;;;;4.50;0.60;;;;;;;;;;5064054;28;20049;-70
2021/09/07 00:12:17;;;;;;;4.90;1.25;;;;;;;;;;5045956;28;20440;-69
2021/09/07 00:14:44;;;;;;;6.72;0.88;;;;;;;;;;5037388;28;20336;-69
2021/09/07 00:17:12;;;;;;;6.40;2.53;;;;;;;;;;5034978;28;20028;-69
2021/09/07 00:19:40;;;;;;;8.18;4.20;;;;;;;;;;5039473;28;20061;-68
2021/09/07 00:22:07;;;;;;;14.05;6.35;;;;;;;;;;5038556;28;20477;-68
2021/09/07 00:24:35;;;;;;;11.82;5.93;;;;;;;;;;5045846;28;20079;-70
2021/09/07 00:27:02;;;;;;;16.23;8.18;;;;;;;;;;5043930;28;20029;-68
2021/09/07 00:29:29;;;;;;;19.23;8.93;;;;;;;;;;5040416;28;20116;-68
2021/09/07 00:31:56;;;;;;;16.88;9.13;;;;;;;;;;5047268;28;20014;-69
2021/09/07 00:34:23;;;;;;;18.10;10.45;;;;;;;;;;5038310;28;20022;-69
2021/09/07 00:36:51;;;;;;;16.20;9.40;;;;;;;;;;5038447;28;20071;-70
2021/09/07 00:39:18;;;;;;;17.67;11.20;;;;;;;;;;5035057;28;20560;-67
2021/09/07 00:41:45;;;;;;;15.00;8.82;;;;;;;;;;5042716;28;20489;-69
2021/09/07 00:44:13;;;;;;;16.25;9.60;;;;;;;;;;5043359;28;20548;-68
2021/09/07 00:46:40;;;;;;;17.40;10.77;;;;;;;;;;5043094;28;20112;-68
2021/09/07 00:49:07;;;;;;;15.05;7.88;;;;;;;;;;5047390;28;20040;-67
2021/09/07 00:51:35;;;;;;;13.23;6.95;;;;;;;;;;5038450;28;20022;-67
2021/09/07 00:54:02;;;;;;;13.68;6.47;;;;;;;;;;5035110;28;20021;-66
2021/09/07 00:56:30;;;;;;;10.20;6.10;;;;;;;;;;5032714;28;20061;-68
2021/09/07 00:58:57;;;;;;;9.93;5.30;;;;;;;;;;5034571;28;20131;-66
2021/09/07 01:01:24;;;;;;;11.57;6.45;;;;;;;;;;5033788;28;20443;-68
2021/09/07 01:03:51;;;;;;;7.43;5.13;;;;;;;;;;5037598;28;20032;-69
2021/09/07 01:06:18;;;;;;;12.07;4.32;;;;;;;;;;5039995;28;20028;-69
2021/09/07 01:08:46;;;;;;;6.95;3.80;;;;;;;;;;5034534;28;20056;-68
2021/09/07 01:11:14;;;;;;;2.58;1.00;;;;;;;;;;5033856;28;20555;-69
2021/09/07 01:13:41;;;;;;;3.60;0.90;;;;;;;;;;5036294;28;20062;-69
2021/09/07 01:16:09;;;;;;;3.78;0.95;;;;;;;;;;5037723;28;20022;-70
2021/09/07 01:18:36;;;;;;;2.70;0.98;;;;;;;;;;5032747;28;20030;-69
2021/09/07 01:21:09;;;;;;;5.00;1.25;;;;;;;;;;5037129;28;20017;-71
2021/09/07 01:23:37;;;;;;;2.80;0.40;;;;;;;;;;5039479;28;20021;-69
2021/09/07 01:26:05;;;;;;;2.97;0.60;;;;;;;;;;5037411;28;20031;-70
2021/09/07 01:28:33;;;;;;;2.45;0.63;;;;;;;;;;5039643;28;20037;-70
2021/09/07 01:31:01;;;;;;;1.85;0.30;;;;;;;;;;5034930;28;20025;-69
2021/09/07 01:33:28;;;;;;;4.07;0.60;;;;;;;;;;5040089;28;20370;-68
2021/09/07 01:35:58;;;;;;;3.50;0.30;;;;;;;;;;5032349;28;20033;-70
2021/09/07 01:38:26;;;;;;;3.13;0.43;;;;;;;;;;5032659;28;20053;-71
2021/09/07 01:40:54;;;;;;;4.95;0.40;;;;;;;;;;5038245;28;20021;-69
2021/09/07 01:43:21;;;;;;;1.80;0.70;;;;;;;;;;5038725;28;20025;-69
2021/09/07 01:45:49;;;;;;;2.85;0.50;;;;;;;;;;5033121;28;20061;-70
2021/09/07 01:48:18;;;;;;;1.92;0.40;;;;;;;;;;5031476;28;20092;-69
2021/09/07 01:50:45;;;;;;;1.77;0.50;;;;;;;;;;5032682;28;20033;-70
2021/09/07 01:53:12;;;;;;;2.42;0.40;;;;;;;;;;5032612;28;20028;-70
2021/09/07 01:55:39;;;;;;;5.40;0.50;;;;;;;;;;5038904;28;20090;-70
2021/09/07 01:58:07;;;;;;;1.42;0.45;;;;;;;;;;5039934;28;20017;-69
2021/09/07 02:00:34;;;;;;;2.63;0.35;;;;;;;;;;5041742;28;20500;-69
2021/09/07 02:03:01;;;;;;;3.63;0.30;;;;;;;;;;5039144;28;20033;-69
2021/09/07 02:05:28;;;;;;;0.88;0.20;;;;;;;;;;5031831;28;20033;-69
2021/09/07 02:07:55;;;;;;;2.60;0.65;;;;;;;;;;5038446;28;20036;-69
2021/09/07 02:10:22;;;;;;;2.15;0.40;;;;;;;;;;5040100;28;20017;-69
2021/09/07 02:12:50;;;;;;;1.67;0.38;;;;;;;;;;5046444;28;20092;-69
2021/09/07 02:15:17;;;;;;;1.83;0.30;;;;;;;;;;5037402;28;20059;-69
2021/09/07 02:17:44;;;;;;;3.45;0.40;;;;;;;;;;5039472;28;20134;-69
2021/09/07 02:20:12;;;;;;;1.33;0.30;;;;;;;;;;5037163;28;20112;-69
2021/09/07 02:22:40;;;;;;;2.72;0.52;;;;;;;;;;5035243;28;20018;-69
2021/09/07 02:25:08;;;;;;;2.60;0.50;;;;;;;;;;5034147;28;20029;-69
2021/09/07 02:27:35;;;;;;;1.98;0.25;;;;;;;;;;5035764;28;20184;-69
2021/09/07 02:30:03;;;;;;;2.17;0.50;;;;;;;;;;5036008;28;20076;-69
2021/09/07 02:32:30;;;;;;;1.65;0.38;;;;;;;;;;5036664;28;20048;-68
2021/09/07 02:34:57;;;;;;;1.58;0.30;;;;;;;;;;5032519;28;20036;-69
2021/09/07 02:37:24;;;;;;;2.90;0.40;;;;;;;;;;5033189;28;20621;-69
2021/09/07 02:39:51;;;;;;;2.63;0.40;;;;;;;;;;5031757;28;20025;-69
2021/09/07 02:42:21;;;;;;;2.53;0.77;;;;;;;;;;5033790;28;20025;-69
2021/09/07 02:44:49;;;;;;;2.65;0.60;;;;;;;;;;5034250;28;20031;-69
2021/09/07 02:47:16;;;;;;;3.30;0.40;;;;;;;;;;5035407;28;20021;-70
2021/09/07 02:49:43;;;;;;;2.67;0.30;;;;;;;;;;5033817;28;20037;-70
2021/09/07 02:52:10;;;;;;;1.95;0.30;;;;;;;;;;5031197;28;20044;-71
2021/09/07 02:54:37;;;;;;;0.95;0.45;;;;;;;;;;5043958;28;20025;-70
2021/09/07 02:57:05;;;;;;;4.28;0.40;;;;;;;;;;5032811;28;20037;-69
2021/09/07 02:59:32;;;;;;;1.67;0.43;;;;;;;;;;5030979;28;20389;-71
2021/09/07 03:01:59;;;;;;;4.10;0.40;;;;;;;;;;5031804;28;20101;-69
2021/09/07 03:04:26;;;;;;;2.67;0.70;;;;;;;;;;5035860;28;20025;-70
2021/09/07 03:06:53;;;;;;;4.47;0.40;;;;;;;;;;5034321;28;20032;-68
2021/09/07 03:09:20;;;;;;;3.85;0.40;;;;;;;;;;5034456;28;20062;-70
2021/09/07 03:11:48;;;;;;;3.17;0.82;;;;;;;;;;5035384;28;20465;-71
2021/09/07 03:14:15;;;;;;;1.98;0.40;;;;;;;;;;5037092;28;20037;-71
2021/09/07 03:16:42;;;;;;;3.42;0.50;;;;;;;;;;5035524;28;20026;-70
2021/09/07 03:19:09;;;;;;;2.90;0.55;;;;;;;;;;5030799;28;20025;-70
2021/09/07 03:21:37;;;;;;;1.10;0.40;;;;;;;;;;5031336;28;20032;-71
2021/09/07 03:24:04;;;;;;;2.50;0.70;;;;;;;;;;5031592;28;20028;-70
2021/09/07 03:26:31;;;;;;;1.75;0.50;;;;;;;;;;5039796;28;20017;-70
2021/09/07 03:28:58;;;;;;;2.30;0.60;;;;;;;;;;5032537;28;20033;-70
2021/09/07 03:31:26;;;;;;;2.05;0.50;;;;;;;;;;5040817;28;20021;-70
2021/09/07 03:33:53;;;;;;;3.00;0.65;;;;;;;;;;5042548;28;20033;-70
2021/09/07 03:36:20;;;;;;;3.97;0.55;;;;;;;;;;5036780;28;20053;-71
2021/09/07 03:38:48;;;;;;;3.92;0.60;;;;;;;;;;5033325;28;20063;-70
2021/09/07 03:41:15;;;;;;;2.15;0.60;;;;;;;;;;5032111;28;20123;-71
2021/09/07 03:43:42;;;;;;;2.13;0.50;;;;;;;;;;5033055;28;20021;-70
2021/09/07 03:46:09;;;;;;;2.13;0.40;;;;;;;;;;5035209;28;20021;-72
2021/09/07 03:48:36;;;;;;;4.28;0.60;;;;;;;;;;5034471;28;20079;-70
2021/09/07 03:51:04;;;;;;;4.45;0.60;;;;;;;;;;5031126;28;20470;-71
2021/09/07 03:53:31;;;;;;;3.50;0.47;;;;;;;;;;5033599;28;20512;-69
2021/09/07 03:55:59;;;;;;;1.92;0.40;;;;;;;;;;5033220;28;20066;-71
2021/09/07 03:58:26;;;;;;;2.20;1.00;;;;;;;;;;5033846;28;20036;-71
2021/09/07 04:00:53;;;;;;;1.23;0.30;;;;;;;;;;5034133;28;20028;-71
2021/09/07 04:03:20;;;;;;;5.45;0.70;;;;;;;;;;5034649;28;20041;-71
2021/09/07 04:05:49;;;;;;;2.08;0.63;;;;;;;;;;5041405;28;20059;-70
2021/09/07 04:08:17;;;;;;;2.45;0.80;;;;;;;;;;5036567;28;20131;-69
2021/09/07 04:10:44;;;;;;;2.65;0.60;;;;;;;;;;5042899;28;20057;-70
2021/09/07 04:13:11;;;;;;;8.75;1.00;;;;;;;;;;5037120;28;20098;-70
2021/09/07 04:15:38;;;;;;;2.15;0.50;;;;;;;;;;5038676;28;20029;-70
2021/09/07 04:18:06;;;;;;;2.88;0.50;;;;;;;;;;5036645;28;20029;-67
2021/09/07 04:20:33;;;;;;;4.00;0.60;;;;;;;;;;5038130;28;20478;-69
2021/09/07 04:23:00;;;;;;;2.10;0.75;;;;;;;;;;5034850;28;20033;-71
2021/09/07 04:25:27;;;;;;;4.90;0.50;;;;;;;;;;5036909;28;20026;-70
2021/09/07 04:27:54;;;;;;;2.20;0.50;;;;;;;;;;5036042;28;20029;-70
2021/09/07 04:30:21;;;;;;;1.70;0.50;;;;;;;;;;5036450;28;20516;-69
2021/09/07 04:32:49;;;;;;;2.60;0.60;;;;;;;;;;5035597;28;20033;-70
2021/09/07 04:35:16;;;;;;;4.25;1.15;;;;;;;;;;5047302;28;20036;-70
2021/09/07 04:37:43;;;;;;;2.75;0.55;;;;;;;;;;5036603;28;20498;-70
2021/09/07 04:40:11;;;;;;;3.28;0.63;;;;;;;;;;5037044;28;20029;-70
2021/09/07 04:42:38;;;;;;;3.22;0.60;;;;;;;;;;5040980;28;20571;-70
2021/09/07 04:45:06;;;;;;;2.35;0.63;;;;;;;;;;5034373;28;20033;-69
2021/09/07 04:47:33;;;;;;;4.47;0.68;;;;;;;;;;5041379;28;20095;-70
2021/09/07 04:50:01;;;;;;;2.60;0.60;;;;;;;;;;5041167;28;20032;-70
2021/09/07 04:52:28;;;;;;;4.63;0.52;;;;;;;;;;5037802;28;20385;-69
2021/09/07 04:54:55;;;;;;;4.97;0.82;;;;;;;;;;5039784;28;20107;-69
2021/09/07 04:57:22;;;;;;;3.40;0.73;;;;;;;;;;5039210;28;20516;-69
2021/09/07 04:59:49;;;;;;;3.42;0.60;;;;;;;;;;5050015;28;20060;-70
2021/09/07 05:02:16;;;;;;;3.63;0.60;;;;;;;;;;5040800;28;20017;-70
2021/09/07 05:04:43;;;;;;;1.65;0.60;;;;;;;;;;5044747;28;20034;-68
2021/09/07 05:07:11;;;;;;;2.33;0.55;;;;;;;;;;5033827;28;20022;-69
2021/09/07 05:09:39;;;;;;;1.98;0.75;;;;;;;;;;5040411;28;20452;-70
2021/09/07 05:12:07;;;;;;;3.20;0.60;;;;;;;;;;5034476;28;20037;-71
2021/09/07 05:14:34;;;;;;;5.25;0.63;;;;;;;;;;5033504;28;20049;-69
2021/09/07 05:17:01;;;;;;;2.35;0.50;;;;;;;;;;5038827;28;20025;-69
2021/09/07 05:19:28;;;;;;;2.72;0.40;;;;;;;;;;5032290;28;20030;-70
2021/09/07 05:21:55;;;;;;;1.92;0.50;;;;;;;;;;5036378;28;20021;-69
2021/09/07 05:24:22;;;;;;;2.65;0.60;;;;;;;;;;5033244;28;20018;-69
2021/09/07 05:26:49;;;;;;;2.97;0.60;;;;;;;;;;5041306;28;20539;-69
2021/09/07 05:29:17;;;;;;;4.40;0.63;;;;;;;;;;5036762;28;20033;-68
2021/09/07 05:31:44;;;;;;;3.10;0.80;;;;;;;;;;5036497;28;20017;-71
2021/09/07 05:34:12;;;;;;;1.92;0.40;;;;;;;;;;5040066;28;20113;-70
2021/09/07 05:36:39;;;;;;;2.22;0.50;;;;;;;;;;5051141;28;20021;-69
2021/09/07 05:39:06;;;;;;;3.65;0.65;;;;;;;;;;5036430;28;20045;-70
2021/09/07 05:41:33;;;;;;;2.13;0.52;;;;;;;;;;5039364;28;20040;-70
2021/09/07 05:44:00;;;;;;;3.63;0.40;;;;;;;;;;5039371;28;20078;-70
2021/09/07 05:46:27;;;;;;;1.63;0.50;;;;;;;;;;5035658;28;20032;-69
2021/09/07 05:48:55;;;;;;;2.65;0.57;;;;;;;;;;5035095;28;20045;-70
2021/09/07 05:51:22;;;;;;;3.60;0.50;;;;;;;;;;5038876;28;20025;-69
2021/09/07 05:53:49;;;;;;;3.75;0.95;;;;;;;;;;5033479;28;20466;-69
2021/09/07 05:56:17;;;;;;;4.28;0.57;;;;;;;;;;5032272;28;20100;-69
2021/09/07 05:58:44;;;;;;;2.47;0.50;;;;;;;;;;5035368;28;20022;-70
2021/09/07 06:01:11;;;;;;;1.25;0.45;;;;;;;;;;5038759;28;20485;-69
2021/09/07 06:03:38;;;;;;;3.65;0.47;;;;;;;;;;5045180;28;20036;-69
2021/09/07 06:06:06;;;;;;;1.50;0.30;;;;;;;;;;5049102;28;20494;-69
2021/09/07 06:08:33;;;;;;;1.83;0.40;;;;;;;;;;5032140;28;20041;-68
2021/09/07 06:11:00;;;;;;;1.50;0.60;;;;;;;;;;5037317;28;20033;-68
2021/09/07 06:13:27;;;;;;;4.18;0.40;;;;;;;;;;5036808;28;20029;-71
2021/09/07 06:15:54;;;;;;;2.97;0.88;;;;;;;;;;5033179;28;20182;-72
2021/09/07 06:18:21;;;;;;;3.80;0.50;;;;;;;;;;5038684;28;20033;-72
2021/09/07 06:20:49;;;;;;;2.22;0.40;;;;;;;;;;5038235;28;20040;-70
2021/09/07 06:23:16;;;;;;;2.83;0.73;;;;;;;;;;5035975;28;20021;-70
2021/09/07 06:25:43;;;;;;;3.17;0.57;;;;;;;;;;5034873;28;20017;-71
2021/09/07 06:28:10;;;;;;;4.65;0.60;;;;;;;;;;5037500;28;20028;-72
2021/09/07 06:30:37;;;;;;;3.00;0.70;;;;;;;;;;5040820;28;20034;-71
2021/09/07 06:33:04;;;;;;;1.27;0.50;;;;;;;;;;5034103;28;20053;-69
2021/09/07 06:35:34;;;;;;;2.97;0.32;;;;;;;;;;5034106;28;20021;-70
2021/09/07 06:38:01;;;;;;;1.67;0.70;;;;;;;;;;5047120;28;20049;-70
2021/09/07 06:40:29;;;;;;;1.90;0.47;;;;;;;;;;5042695;28;20482;-70
2021/09/07 06:42:56;;;;;;;3.03;0.60;;;;;;;;;;5033127;28;20025;-71
2021/09/07 06:45:23;;;;;;;1.85;0.65;;;;;;;;;;5032032;28;20056;-71
2021/09/07 06:47:50;;;;;;;4.35;0.95;;;;;;;;;;5040062;28;20737;-70
2021/09/07 06:50:17;;;;;;;3.05;0.43;;;;;;;;;;5035069;28;20038;-70
2021/09/07 06:52:44;;;;;;;2.47;0.70;;;;;;;;;;5038251;28;20517;-70
2021/09/07 06:55:12;;;;;;;3.00;0.60;;;;;;;;;;5032150;28;20466;-69
2021/09/07 06:57:39;;;;;;;2.08;0.50;;;;;;;;;;5035669;28;20131;-70
2021/09/07 07:00:06;;;;;;;2.20;0.80;;;;;;;;;;5032497;28;20025;-70
2021/09/07 07:02:38;;;;;;;1.63;0.40;;;;;;;;;;5032988;28;20029;-71
2021/09/07 07:05:05;;;;;;;2.10;0.43;;;;;;;;;;5038680;28;20382;-71
2021/09/07 07:07:32;;;;;;;3.20;1.10;;;;;;;;;;5035737;28;20022;-70
2021/09/07 07:10:00;;;;;;;5.53;0.80;;;;;;;;;;5031484;28;20366;-70
2021/09/07 07:12:27;;;;;;;2.80;0.85;;;;;;;;;;5031541;28;20025;-69
2021/09/07 07:14:54;;;;;;;3.40;1.80;;;;;;;;;;5031314;28;20064;-69
2021/09/07 07:17:21;;;;;;;6.65;1.15;;;;;;;;;;5031015;28;20156;-70
2021/09/07 07:19:50;;;;;;;5.80;1.23;;;;;;;;;;5033501;28;20057;-70
2021/09/07 07:22:18;;;;;;;5.60;1.15;;;;;;;;;;5037582;28;20086;-70
2021/09/07 07:24:45;;;;;;;7.30;1.27;;;;;;;;;;5035694;28;20037;-70
2021/09/07 07:27:12;;;;;;;5.50;1.42;;;;;;;;;;5030863;28;20021;-71
2021/09/07 07:29:39;;;;;;;5.88;1.13;;;;;;;;;;5034154;28;20036;-71
2021/09/07 07:32:06;;;;;;;6.20;1.25;;;;;;;;;;5039355;28;20025;-71
2021/09/07 07:34:33;;;;;;;4.32;0.73;;;;;;;;;;5039251;28;20086;-70
2021/09/07 07:37:01;;;;;;;5.95;1.10;;;;;;;;;;5044962;28;20034;-70
2021/09/07 07:39:29;;;;;;;7.22;1.35;;;;;;;;;;5036825;28;20017;-72
2021/09/07 07:41:56;;;;;;;9.43;1.25;;;;;;;;;;5041707;28;20458;-71
2021/09/07 07:44:23;;;;;;;6.07;1.10;;;;;;;;;;5039209;28;20122;-72
2021/09/07 07:46:51;;;;;;;7.18;1.27;;;;;;;;;;5042005;28;20026;-71
2021/09/07 07:49:18;;;;;;;4.93;0.80;;;;;;;;;;5039489;28;20032;-70
2021/09/07 07:51:45;;;;;;;4.85;1.08;;;;;;;;;;5040311;28;20036;-71
2021/09/07 07:54:13;;;;;;;9.02;1.70;;;;;;;;;;5040348;28;20485;-70
2021/09/07 07:56:40;;;;;;;4.90;1.00;;;;;;;;;;5038302;28;20028;-70
2021/09/07 07:59:08;;;;;;;11.07;1.55;;;;;;;;;;5038924;28;20493;-71
2021/09/07 08:01:35;;;;;;;6.38;1.25;;;;;;;;;;5041179;28;20029;-71
2021/09/07 08:04:02;;;;;;;6.65;1.67;;;;;;;;;;5036679;28;20036;-71
2021/09/07 08:06:29;;;;;;;11.77;1.63;;;;;;;;;;5047393;28;20458;-71
2021/09/07 08:08:56;;;;;;;9.45;1.23;;;;;;;;;;5035761;28;20061;-70
2021/09/07 08:11:23;;;;;;;8.18;2.03;;;;;;;;;;5034677;28;20067;-70
2021/09/07 08:13:51;;;;;;;12.07;1.65;;;;;;;;;;5036757;28;20026;-71
2021/09/07 08:16:18;;;;;;;11.73;1.77;;;;;;;;;;5035636;28;20033;-71
2021/09/07 08:18:51;;;;;;;7.65;1.25;;;;;;;;;;5036423;28;20025;-68
2021/09/07 08:21:19;;;;;;;7.18;1.45;;;;;;;;;;5035349;28;20037;-70
2021/09/07 08:23:46;;;;;;;9.70;2.10;;;;;;;;;;5039874;28;20099;-71
2021/09/07 08:26:14;;;;;;;11.40;1.92;;;;;;;;;;5037351;28;20027;-70
2021/09/07 08:28:41;;;;;;;9.23;1.40;;;;;;;;;;5044825;28;20079;-70
2021/09/07 08:31:08;;;;;;;10.25;1.20;;;;;;;;;;5040216;28;20386;-71
2021/09/07 08:33:35;;;;;;;9.48;1.65;;;;;;;;;;5047539;28;20018;-71
2021/09/07 08:36:02;;;;;;;6.18;1.95;;;;;;;;;;5040565;28;20155;-71
2021/09/07 08:38:32;;;;;;;11.02;1.33;;;;;;;;;;5050852;28;20045;-70
2021/09/07 08:40:59;;;;;;;6.65;1.17;;;;;;;;;;5036809;28;20081;-70
2021/09/07 08:43:27;;;;;;;7.28;1.08;;;;;;;;;;5042368;28;20018;-70
2021/09/07 08:45:54;;;;;;;8.40;1.63;;;;;;;;;;5044293;28;20505;-70
2021/09/07 08:48:22;;;;;;;10.02;0.95;;;;;;;;;;5036253;28;20022;-70
2021/09/07 08:50:49;;;;;;;14.48;1.98;;;;;;;;;;5034660;28;20022;-70
2021/09/07 08:53:17;;;;;;;11.32;2.10;;;;;;;;;;5033887;28;20104;-70
2021/09/07 08:55:44;;;;;;;8.30;1.10;;;;;;;;;;5043286;28;20052;-71
2021/09/07 08:58:11;;;;;;;12.23;1.63;;;;;;;;;;5034611;28;20018;-69
2021/09/07 09:00:38;;;;;;;12.38;1.80;;;;;;;;;;5038413;28;20029;-70
2021/09/07 09:03:11;;;;;;;8.45;1.83;;;;;;;;;;5047644;28;20079;-69
2021/09/07 09:05:41;;;;;;;11.50;2.05;;;;;;;;;;5043175;28;20103;-69
2021/09/07 09:08:15;;;;;;;7.65;1.88;;;;;;;;;;5034426;28;20021;-71
2021/09/07 09:10:41;;;;;;;;;;;;;;;;;;5035338;28;20018;-70
2021/09/07 09:13:16;;;;;;;9.77;1.48;;;;;;;;;;5037645;28;19909;-71
2021/09/07 09:16:03;;;;;;;13.60;2.45;;;;;;;;;;5036199;28;20100;-70
2021/09/07 09:18:34;;;;;;;7.95;1.98;;;;;;;;;;5036216;28;20025;-70
2021/09/07 09:21:19;;;;;;;6.78;1.55;;;;;;;;;;5033906;28;20029;-70
2021/09/07 09:24:05;;;;;;;7.65;1.60;;;;;;;;;;5036049;28;20501;-69
2021/09/07 09:26:32;;;;;;;12.38;1.30;;;;;;;;;;5048345;28;20028;-71
2021/09/07 09:29:05;;;;;;;13.18;1.55;;;;;;;;;;5034995;28;20044;-70
2021/09/07 09:31:50;;;;;;;10.07;1.30;;;;;;;;;;5046391;28;20083;-70
2021/09/07 09:34:16;;;;;;;;;;;;;;;;;;5040136;28;20449;-71
2021/09/07 09:36:56;;;;;;;11.65;2.15;;;;;;;;;;5039850;28;19963;-70
2021/09/07 09:39:42;;;;;;;8.30;1.45;;;;;;;;;;5040289;28;20052;-70
2021/09/07 09:42:11;;;;;;;9.38;1.83;;;;;;;;;;5039330;28;20509;-70
2021/09/07 09:44:38;;;;;;;11.70;1.65;;;;;;;;;;5036949;28;20030;-69
2021/09/07 09:47:05;;;;;;;7.72;1.25;;;;;;;;;;5033138;28;20037;-69
2021/09/07 09:49:33;;;;;;;12.10;1.90;;;;;;;;;;5043124;28;20040;-69
2021/09/07 09:52:08;;;;;;;9.25;1.85;;;;;;;;;;5046017;28;20025;-72
2021/09/07 09:54:39;;;;;;;11.43;2.55;;;;;;;;;;5042767;28;20027;-69
2021/09/07 09:57:06;;;;;;;9.50;2.10;;;;;;;;;;5048327;28;20020;-70
2021/09/07 09:59:33;;;;;;;5.88;1.25;;;;;;;;;;5039525;28;20026;-69
2021/09/07 10:02:01;;;;;;;10.88;1.45;;;;;;;;;;5033350;28;20029;-68
2021/09/07 10:04:30;;;;;;;6.75;1.17;;;;;;;;;;5036943;28;20031;-70
2021/09/07 10:06:57;;;;;;;12.65;1.95;;;;;;;;;;5038310;28;20120;-70
2021/09/07 10:09:25;;;;;;;11.43;1.42;;;;;;;;;;5053401;28;20124;-70
2021/09/07 10:12:12;;;;;;;10.80;1.95;;;;;;;;;;5032704;28;20041;-70
2021/09/07 10:14:44;;;;;;;8.18;1.98;;;;;;;;;;5032959;28;20505;-72
2021/09/07 10:17:44;;;;;;;13.05;3.05;;;;;;;;;;5045682;28;20021;-70
2021/09/07 10:25:43;;;;;;;7.47;1.95;;;;;;;;;;5040580;28;20057;-72
2021/09/07 10:28:12;;;;;;;12.40;2.15;;;;;;;;;;5033374;28;20053;-72
2021/09/07 10:31:00;;;;;;;8.75;1.95;;;;;;;;;;5037828;28;20109;-72
2021/09/07 10:33:30;;;;;;;8.02;1.30;;;;;;;;;;5046963;28;20017;-71
2021/09/07 10:36:12;;;;;;;9.43;1.77;;;;;;;;;;5032804;28;20030;-72
2021/09/07 10:38:41;;;;;;;10.40;1.52;;;;;;;;;;5039468;28;20041;-72
2021/09/07 10:41:09;;;;;;;14.77;2.08;;;;;;;;;;5051666;28;20501;-72
2021/09/07 10:43:53;;;;;;;14.30;3.13;;;;;;;;;;5040868;28;20029;-71
2021/09/07 10:46:38;;;;;;;11.68;2.08;;;;;;;;;;5032256;28;20035;-72
2021/09/07 10:49:15;;;;;;;16.60;2.65;;;;;;;;;;5050792;28;20029;-71
2021/09/07 10:52:00;;;;;;;10.60;1.40;;;;;;;;;;5044996;28;20078;-72
2021/09/07 10:54:27;;;;;;;9.60;1.80;;;;;;;;;;5049231;28;20033;-72
2021/09/07 10:56:57;;;;;;;9.18;1.70;;;;;;;;;;5037115;28;20112;-72
2021/09/07 10:59:47;;;;;;;14.48;2.92;;;;;;;;;;5033839;28;20032;-71
2021/09/07 11:02:34;;;;;;;9.23;2.55;;;;;;;;;;5048862;28;20446;-71
2021/09/07 11:05:03;;;;;;;13.13;1.77;;;;;;;;;;5034700;28;20308;-71
2021/09/07 11:07:34;;;;;;;17.90;2.22;;;;;;;;;;5031985;28;20421;-73
2021/09/07 11:10:01;;;;;;;12.68;2.30;;;;;;;;;;5045156;28;20036;-69
2021/09/07 11:12:29;;;;;;;9.45;1.77;;;;;;;;;;5035402;28;20018;-70
2021/09/07 11:15:08;;;;;;;16.67;2.40;;;;;;;;;;5042136;28;20041;-70
2021/09/07 11:17:35;;;;;;;9.40;2.83;;;;;;;;;;5046709;28;20013;-70
2021/09/07 11:20:07;;;;;;;10.48;2.15;;;;;;;;;;5041152;28;20036;-70
2021/09/07 11:22:35;;;;;;;12.57;1.77;;;;;;;;;;5036594;28;20088;-70
2021/09/07 11:25:12;;;;;;;9.10;1.00;;;;;;;;;;5036539;28;20025;-70
2021/09/07 11:27:58;;;;;;;10.82;2.72;;;;;;;;;;5049986;28;20037;-70
2021/09/07 11:30:25;;;;;;;11.77;2.83;;;;;;;;;;5045137;28;20038;-70
2021/09/07 11:32:59;;;;;;;15.85;3.05;;;;;;;;;;5052650;28;20027;-70
2021/09/07 11:35:26;;;;;;;;;;;;;;;;;;5044260;28;20021;-70
2021/09/07 11:37:57;;;;;;;12.43;3.05;;;;;;;;;;5042545;28;20404;-70
2021/09/07 11:40:24;;;;;;;14.18;3.22;;;;;;;;;;5039018;28;20021;-69
2021/09/07 11:42:52;;;;;;;14.88;2.70;;;;;;;;;;5035950;28;20100;-70
2021/09/07 11:45:19;;;;;;;14.95;2.30;;;;;;;;;;5037737;28;20512;-69
2021/09/07 11:47:47;;;;;;;18.88;2.13;;;;;;;;;;5047093;28;20398;-69
2021/09/07 11:50:29;;;;;;;11.13;2.03;;;;;;;;;;5035462;28;20079;-69
2021/09/07 11:52:56;;;;;;;6.95;1.58;;;;;;;;;;5035775;28;20036;-69
2021/09/07 11:55:56;;;;;;;11.30;2.10;;;;;;;;;;5040532;28;20035;-70
2021/09/07 11:58:42;;;;;;;13.10;2.35;;;;;;;;;;5033879;28;20132;-69
2021/09/07 12:01:25;;;;;;;14.07;2.17;;;;;;;;;;5046606;28;20056;-69
2021/09/07 12:03:54;;;;;;;11.15;1.92;;;;;;;;;;5045877;28;20123;-70
2021/09/07 12:06:30;;;;;;;14.13;2.30;;;;;;;;;;5038336;28;20036;-69
2021/09/07 12:09:09;;;;;;;9.80;2.28;;;;;;;;;;5035094;28;20036;-69
2021/09/07 12:11:36;;;;;;;12.25;2.03;;;;;;;;;;5033238;28;20056;-70
2021/09/07 12:14:05;;;;;;;8.02;1.98;;;;;;;;;;5034440;28;20014;-69
2021/09/07 12:16:32;;;;;;;11.65;2.10;;;;;;;;;;5046918;28;20082;-69
2021/09/07 12:18:59;;;;;;;10.98;1.70;;;;;;;;;;5037565;28;20022;-70
2021/09/07 12:21:27;;;;;;;7.35;1.85;;;;;;;;;;5033503;28;20030;-70
2021/09/07 12:23:55;;;;;;;7.55;1.40;;;;;;;;;;5051613;28;20033;-70
2021/09/07 12:26:39;;;;;;;6.90;1.73;;;;;;;;;;5049004;28;20101;-70
2021/09/07 12:29:13;;;;;;;12.32;2.55;;;;;;;;;;5036239;28;20398;-70
2021/09/07 12:31:40;;;;;;;11.02;1.73;;;;;;;;;;5034893;28;20033;-70
2021/09/07 12:34:07;;;;;;;10.18;2.08;;;;;;;;;;5041053;28;20036;-70
2021/09/07 12:36:45;;;;;;;10.07;1.45;;;;;;;;;;5042342;28;20164;-70
2021/09/07 12:39:13;;;;;;;10.93;1.95;;;;;;;;;;5034208;28;20057;-69
2021/09/07 12:41:40;;;;;;;8.10;2.00;;;;;;;;;;5034055;28;20071;-69
2021/09/07 12:44:07;;;;;;;9.38;2.20;;;;;;;;;;5038466;28;20033;-70
2021/09/07 12:46:37;;;;;;;10.32;1.88;;;;;;;;;;5040556;28;20374;-70
2021/09/07 12:49:04;;;;;;;8.63;2.20;;;;;;;;;;5045730;28;20074;-69
2021/09/07 12:51:31;;;;;;;9.65;1.48;;;;;;;;;;5053007;28;20040;-70
2021/09/07 12:54:00;;;;;;;8.00;1.73;;;;;;;;;;5052624;28;20504;-69
2021/09/07 12:56:31;;;;;;;8.65;1.73;;;;;;;;;;5040046;28;20055;-70
2021/09/07 12:59:00;;;;;;;7.78;2.00;;;;;;;;;;5037005;28;20100;-70
2021/09/07 13:01:28;;;;;;;8.32;1.40;;;;;;;;;;5036252;28;20079;-70
2021/09/07 13:03:55;;;;;;;7.07;1.90;;;;;;;;;;5049090;28;20021;-70
2021/09/07 13:06:23;;;;;;;10.68;2.15;;;;;;;;;;5035716;28;20021;-70
2021/09/07 13:08:51;;;;;;;9.02;2.15;;;;;;;;;;5042555;28;20059;-70
2021/09/07 13:11:19;;;;;;;8.18;1.50;;;;;;;;;;5036158;28;20476;-69
2021/09/07 13:13:46;;;;;;;8.48;1.77;;;;;;;;;;5039315;28;20035;-69
2021/09/07 13:16:15;;;;;;;9.70;1.90;;;;;;;;;;5041063;28;20033;-70
2021/09/07 13:18:42;;;;;;;10.98;2.03;;;;;;;;;;5034127;28;20033;-70
2021/09/07 13:21:13;;;;;;;10.10;1.77;;;;;;;;;;5034996;28;20482;-69
2021/09/07 13:23:41;;;;;;;12.65;2.97;;;;;;;;;;5039480;28;20108;-69
2021/09/07 13:26:08;;;;;;;9.75;2.85;;;;;;;;;;5033701;28;20029;-70
2021/09/07 13:28:35;;;;;;;11.57;2.90;;;;;;;;;;5038288;28;20351;-69
2021/09/07 13:31:02;;;;;;;6.50;1.98;;;;;;;;;;5033900;28;20029;-70
2021/09/07 13:33:30;;;;;;;9.80;2.65;;;;;;;;;;5033267;28;20029;-70
2021/09/07 13:35:57;;;;;;;11.32;2.40;;;;;;;;;;5032998;28;20037;-69
2021/09/07 13:38:24;;;;;;;16.67;2.95;;;;;;;;;;5036474;28;20129;-70
2021/09/07 13:40:51;;;;;;;10.68;2.75;;;;;;;;;;5051454;28;20032;-70
2021/09/07 13:43:18;;;;;;;11.48;2.80;;;;;;;;;;5037436;28;20485;-69
2021/09/07 13:45:45;;;;;;;13.63;3.97;;;;;;;;;;5045156;28;20033;-69
2021/09/07 13:48:12;;;;;;;8.57;1.80;;;;;;;;;;5045669;28;20107;-70
2021/09/07 13:50:40;;;;;;;8.65;2.03;;;;;;;;;;5033477;28;20041;-70
2021/09/07 13:53:07;;;;;;;12.02;2.65;;;;;;;;;;5034131;28;20390;-69
2021/09/07 13:55:35;;;;;;;11.40;2.45;;;;;;;;;;5037945;28;20108;-69
2021/09/07 13:58:02;;;;;;;11.18;3.17;;;;;;;;;;5049667;28;20021;-70
2021/09/07 14:00:29;;;;;;;8.50;2.05;;;;;;;;;;5034501;28;20021;-70
2021/09/07 14:02:56;;;;;;;6.78;1.52;;;;;;;;;;5049070;28;20021;-70
2021/09/07 14:05:23;;;;;;;13.27;2.40;;;;;;;;;;5040901;28;20025;-70
2021/09/07 14:07:51;;;;;;;14.77;2.33;;;;;;;;;;5036261;28;20104;-69
2021/09/07 14:10:18;;;;;;;9.85;1.52;;;;;;;;;;5048717;28;20059;-70
2021/09/07 14:12:45;;;;;;;10.45;2.50;;;;;;;;;;5039112;28;20018;-69
2021/09/07 14:15:12;;;;;;;10.00;2.33;;;;;;;;;;5052715;28;20425;-70
2021/09/07 14:17:40;;;;;;;11.07;2.38;;;;;;;;;;5037646;28;20019;-70
2021/09/07 14:20:08;;;;;;;10.93;2.05;;;;;;;;;;5051241;28;20020;-70
2021/09/07 14:22:35;;;;;;;11.27;2.50;;;;;;;;;;5041423;28;20425;-70
2021/09/07 14:25:03;;;;;;;9.90;2.08;;;;;;;;;;5048951;28;20053;-70
2021/09/07 14:27:30;;;;;;;8.73;2.03;;;;;;;;;;5035783;28;20381;-70
2021/09/07 14:29:58;;;;;;;9.70;2.38;;;;;;;;;;5032132;28;20029;-70
2021/09/07 14:32:25;;;;;;;11.32;1.83;;;;;;;;;;5032598;28;20033;-70
2021/09/07 14:34:54;;;;;;;6.05;1.33;;;;;;;;;;5032461;28;20041;-70
2021/09/07 14:37:25;;;;;;;8.13;1.35;;;;;;;;;;5032428;28;20056;-70
2021/09/07 14:39:53;;;;;;;3.80;1.30;;;;;;;;;;5040595;28;20104;-70
2021/09/07 14:42:20;;;;;;;5.80;1.75;;;;;;;;;;5037643;28;20474;-70
2021/09/07 14:44:48;;;;;;;6.10;1.33;;;;;;;;;;5048686;28;20045;-70
2021/09/07 14:47:15;;;;;;;8.95;1.67;;;;;;;;;;5043165;28;20115;-70
2021/09/07 14:49:42;;;;;;;10.20;1.65;;;;;;;;;;5042536;28;20043;-69
2021/09/07 14:52:09;;;;;;;6.05;1.60;;;;;;;;;;5039204;28;20454;-69
2021/09/07 14:54:36;;;;;;;7.68;1.73;;;;;;;;;;5052160;28;20028;-69
2021/09/07 14:57:04;;;;;;;11.02;2.92;;;;;;;;;;5052353;28;20021;-69